Haigler, NE (69030)

9:36 PM MDT on July 24, 2016 (GMT -0600)
Wray Municipal Airport | | Change Station

Elev 3668 ft 40.10 °N, 102.24 °W | Updated 41 minutes ago

Heavy Rain
Heavy Rain
63 °F
Feels Like 63 °F
N
15
Wind Variable Wind from NNE

Today
High -- | Low -- °F
--% Chance of Precip.
Yesterday
High -- | Low -- °F
Precip. -- in
Pressure 30.28 in
Visibility 4.0 miles
Clouds Scattered Clouds 2300 ft
Mostly Cloudy 3400 ft
Overcast 8000 ft
Dew Point 59 °F
Humidity 88%
Rainfall 0.27 in
Snow Depth Not available.
5:39 AM 8:09 PM
Waning Gibbous, 70% visible
METAR K2V5 250255Z AUTO 02013KT 4SM +RA SCT023 BKN034 OVC080 17/15 A3028 RMK AO2 LTG DSNT NE THRU S P0027
Pressure 30.28 in
Visibility 4.0 miles
Clouds Scattered Clouds 2300 ft
Mostly Cloudy 3400 ft
Overcast 8000 ft
Dew Point 59 °F
Humidity 88%
Rainfall 0.27 in
Snow Depth Not available.
5:39 AM 8:09 PM
Waning Gibbous, 70% visible
METAR K2V5 250255Z AUTO 02013KT 4SM +RA SCT023 BKN034 OVC080 17/15 A3028 RMK AO2 LTG DSNT NE THRU S P0027

10-Day Weather Forecast

Almanac

Astronomy

Jul. 24, 2016 Rise Set
Actual Time
Civil Twilight
Nautical Twilight
Astronomical Twilight
Moon
Length of Visible Light
Length of Day
Tomorrow will be .
, % of the Moon is Illuminated

Today's Extremes

State Highs State Lows

Community

WunderPhotos

Upload Photos

1,927,256 photos uploaded!

WunderBlog® & News

Nearby

Air Quality

  Air Quality AQ Index Pollutant
Not available.

Snow Depth

Station Depth Elevation

Earthquake Activity

City Distance Mag. Time & Date
Minimum magnitude displayed is 2.5.

Coastal Water Temperatures

Place Temperature

Stations

Nearby Weather Stations

Station Location Temp. Windchill Dew Point Humidity Wind Precip. Elev Updated Type
                   

Watches & Warnings

There are currently no watches in effect.